createdAt,value
2022-12-06T00:01:38.537Z,6.10
2022-12-06T00:04:10.362Z,6.10
2022-12-06T00:06:45.876Z,6.10
2022-12-06T00:09:21.136Z,6.10
2022-12-06T00:11:48.684Z,6.10
2022-12-06T00:14:19.051Z,6.00
2022-12-06T00:16:46.533Z,6.00
2022-12-06T00:19:16.108Z,6.00
2022-12-06T00:21:43.986Z,6.00
2022-12-06T00:24:16.816Z,6.00
2022-12-06T00:26:46.747Z,5.90
2022-12-06T00:29:17.025Z,5.90
2022-12-06T00:31:44.597Z,5.90
2022-12-06T00:34:16.273Z,5.90
2022-12-06T00:36:44.120Z,6.00
2022-12-06T00:39:14.072Z,6.00
2022-12-06T00:41:41.980Z,6.10
2022-12-06T00:44:10.574Z,6.10
2022-12-06T00:46:38.734Z,6.10
2022-12-06T00:49:07.848Z,6.10
2022-12-06T00:51:36.508Z,6.10
2022-12-06T00:54:04.255Z,6.10
2022-12-06T00:56:32.214Z,6.10
2022-12-06T00:58:59.607Z,6.10
2022-12-06T01:01:30.796Z,6.10
2022-12-06T01:04:00.370Z,6.10
2022-12-06T01:06:32.587Z,6.10
2022-12-06T01:09:06.708Z,6.10
2022-12-06T01:11:34.696Z,6.20
2022-12-06T01:14:04.019Z,6.20
2022-12-06T01:16:31.925Z,6.20
2022-12-06T01:19:01.788Z,6.20
2022-12-06T01:21:30.154Z,6.20
2022-12-06T01:23:57.700Z,6.10
2022-12-06T01:26:30.748Z,6.10
2022-12-06T01:29:01.282Z,6.10
2022-12-06T01:31:37.247Z,6.10
2022-12-06T01:34:07.104Z,6.10
2022-12-06T01:36:37.432Z,6.10
2022-12-06T01:39:07.096Z,6.00
2022-12-06T01:41:34.952Z,6.00
2022-12-06T01:44:02.777Z,6.00
2022-12-06T01:46:42.633Z,6.00
2022-12-06T01:49:12.805Z,5.90
2022-12-06T01:51:51.423Z,5.90
2022-12-06T01:54:20.907Z,5.80
2022-12-06T01:56:49.852Z,5.80
2022-12-06T01:59:19.873Z,5.80
2022-12-06T02:01:48.518Z,5.80
2022-12-06T02:04:19.322Z,5.90
2022-12-06T02:06:47.490Z,5.90
2022-12-06T02:09:16.560Z,5.90
2022-12-06T02:11:43.995Z,5.90
2022-12-06T02:14:17.188Z,5.80
2022-12-06T02:17:09.415Z,5.80
2022-12-06T02:19:51.397Z,5.80
2022-12-06T02:22:26.545Z,5.80
2022-12-06T02:25:20.706Z,5.80
2022-12-06T02:28:09.991Z,5.80
2022-12-06T02:31:02.197Z,5.80
2022-12-06T02:33:36.917Z,5.80
2022-12-06T02:36:45.246Z,5.80
2022-12-06T02:39:24.620Z,5.80
2022-12-06T02:42:00.350Z,5.80
2022-12-06T02:44:36.441Z,5.80
2022-12-06T02:47:06.289Z,5.80
2022-12-06T02:49:36.898Z,5.80
2022-12-06T02:52:06.671Z,5.80
2022-12-06T02:54:36.422Z,5.90
2022-12-06T02:57:05.816Z,5.80
2022-12-06T02:59:33.401Z,5.70
2022-12-06T03:02:04.174Z,5.80
2022-12-06T03:05:16.392Z,5.70
2022-12-06T03:07:45.787Z,5.70
2022-12-06T03:10:38.554Z,5.80
2022-12-06T03:13:28.639Z,5.70
2022-12-06T03:16:04.384Z,5.70
2022-12-06T03:18:36.841Z,5.70
2022-12-06T03:21:09.032Z,5.70
2022-12-06T03:23:42.181Z,5.70
2022-12-06T03:26:16.691Z,5.60
2022-12-06T03:28:46.886Z,5.60
2022-12-06T03:31:17.932Z,5.60
2022-12-06T03:33:55.992Z,5.60
2022-12-06T03:36:26.230Z,5.60
2022-12-06T03:38:55.560Z,5.70
2022-12-06T03:41:28.580Z,5.70
2022-12-06T03:43:56.221Z,5.70
2022-12-06T03:46:41.010Z,5.70
2022-12-06T03:49:15.729Z,5.70
2022-12-06T03:51:44.552Z,5.70
2022-12-06T03:54:14.570Z,5.70
2022-12-06T03:56:46.686Z,5.60
2022-12-06T03:59:14.049Z,5.50
2022-12-06T04:01:41.479Z,5.50
2022-12-06T04:04:10.245Z,5.50
2022-12-06T04:06:39.963Z,5.60
2022-12-06T04:09:06.976Z,5.50
2022-12-06T04:11:34.329Z,5.50
2022-12-06T04:14:01.577Z,5.50
2022-12-06T04:16:28.920Z,5.60
2022-12-06T04:18:56.227Z,5.50
2022-12-06T04:21:23.824Z,5.50
2022-12-06T04:23:54.420Z,5.50
2022-12-06T04:26:25.529Z,5.40
2022-12-06T04:28:53.783Z,5.30
2022-12-06T04:31:26.183Z,5.30
2022-12-06T04:33:55.764Z,5.30
2022-12-06T04:36:23.054Z,5.20
2022-12-06T04:38:52.638Z,5.20
2022-12-06T04:41:22.888Z,5.20
2022-12-06T04:43:49.894Z,5.10
2022-12-06T04:46:17.254Z,5.10
2022-12-06T04:48:47.088Z,5.00
2022-12-06T04:51:16.927Z,5.00
2022-12-06T04:53:43.936Z,4.90
2022-12-06T04:56:11.387Z,4.80
2022-12-06T04:58:38.374Z,4.80
2022-12-06T05:01:08.421Z,4.70
2022-12-06T05:03:40.845Z,4.70
2022-12-06T05:06:11.399Z,4.70
2022-12-06T05:08:38.795Z,4.60
2022-12-06T05:11:08.297Z,4.40
2022-12-06T05:13:36.198Z,4.30
2022-12-06T05:16:07.510Z,4.20
2022-12-06T05:18:34.812Z,4.10
2022-12-06T05:21:06.424Z,4.10
2022-12-06T05:23:35.122Z,4.10
2022-12-06T05:26:16.949Z,4.10
2022-12-06T05:28:45.498Z,4.20
2022-12-06T05:31:13.521Z,4.20
2022-12-06T05:33:40.962Z,4.20
2022-12-06T05:36:14.814Z,4.10
2022-12-06T05:38:43.734Z,4.10
2022-12-06T05:41:14.808Z,4.10
2022-12-06T05:43:41.872Z,4.10
2022-12-06T05:46:09.210Z,4.10
2022-12-06T05:48:36.455Z,4.20
2022-12-06T05:51:08.504Z,4.10
2022-12-06T05:53:35.731Z,4.10
2022-12-06T05:56:09.171Z,4.20
2022-12-06T05:58:36.957Z,4.20
2022-12-06T06:01:07.234Z,4.20
2022-12-06T06:03:35.031Z,4.10
2022-12-06T06:06:03.556Z,4.20
2022-12-06T06:08:33.220Z,4.20
2022-12-06T06:11:00.758Z,4.20
2022-12-06T06:13:27.825Z,4.30
2022-12-06T06:15:55.283Z,4.30
2022-12-06T06:18:24.589Z,4.20
2022-12-06T06:20:53.789Z,4.20
2022-12-06T06:23:21.954Z,4.30
2022-12-06T06:25:54.592Z,4.30
2022-12-06T06:28:22.344Z,4.30
2022-12-06T06:30:52.137Z,4.30
2022-12-06T06:33:19.379Z,4.30
2022-12-06T06:35:46.864Z,4.20
2022-12-06T06:38:14.100Z,4.20
2022-12-06T06:40:43.661Z,4.30
2022-12-06T06:43:10.806Z,4.30
2022-12-06T06:45:38.763Z,4.30
2022-12-06T06:48:06.025Z,4.30
2022-12-06T06:50:33.502Z,4.30
2022-12-06T06:53:00.629Z,4.30
2022-12-06T06:55:28.151Z,4.30
2022-12-06T06:57:57.815Z,4.20
2022-12-06T07:00:25.279Z,4.30
2022-12-06T07:02:54.606Z,4.30
2022-12-06T07:05:24.335Z,4.30
2022-12-06T07:07:51.461Z,4.40
2022-12-06T07:10:21.415Z,4.40
2022-12-06T07:12:51.055Z,4.40
2022-12-06T07:15:21.085Z,4.30
2022-12-06T07:17:48.158Z,4.30
2022-12-06T07:20:18.219Z,4.20
2022-12-06T07:22:45.498Z,4.30
2022-12-06T07:25:12.819Z,4.20
2022-12-06T07:27:42.489Z,4.30
2022-12-06T07:30:14.426Z,4.20
2022-12-06T07:32:46.194Z,4.20
2022-12-06T07:35:16.256Z,4.20
2022-12-06T07:37:44.042Z,4.20
2022-12-06T07:40:13.378Z,4.20
2022-12-06T07:42:40.557Z,4.10
2022-12-06T07:45:11.848Z,4.10
2022-12-06T07:47:43.172Z,4.20
2022-12-06T07:50:17.857Z,4.30
2022-12-06T07:52:49.134Z,4.40
2022-12-06T07:55:17.415Z,4.40
2022-12-06T07:57:44.831Z,4.50
2022-12-06T08:00:14.704Z,4.50
2022-12-06T08:02:42.332Z,4.50
2022-12-06T08:05:11.929Z,4.50
2022-12-06T08:07:39.264Z,4.60
2022-12-06T08:10:10.141Z,4.70
2022-12-06T08:12:37.345Z,4.70
2022-12-06T08:15:07.877Z,4.80
2022-12-06T08:17:37.661Z,4.80
2022-12-06T08:20:06.554Z,4.90
2022-12-06T08:22:33.879Z,5.00
2022-12-06T08:25:03.926Z,5.10
2022-12-06T08:27:30.952Z,5.10
2022-12-06T08:29:58.963Z,5.20
2022-12-06T08:32:26.195Z,5.30
2022-12-06T08:34:53.520Z,5.30
2022-12-06T08:37:25.187Z,5.50
2022-12-06T08:39:52.629Z,5.50
2022-12-06T08:42:25.011Z,5.60
2022-12-06T08:44:52.891Z,5.70
2022-12-06T08:47:20.381Z,5.70
2022-12-06T08:49:52.021Z,5.60
2022-12-06T08:52:19.444Z,5.60
2022-12-06T08:54:49.259Z,5.60
2022-12-06T08:57:16.440Z,5.50
2022-12-06T08:59:44.000Z,5.50
2022-12-06T09:02:12.245Z,5.40
2022-12-06T09:04:39.831Z,5.40
2022-12-06T09:07:11.491Z,5.30
2022-12-06T09:09:39.270Z,5.30
2022-12-06T09:12:08.872Z,5.30
2022-12-06T09:14:36.440Z,5.30
2022-12-06T09:17:06.480Z,5.30
2022-12-06T09:19:36.473Z,5.30
2022-12-06T09:22:04.096Z,5.30
2022-12-06T09:24:31.497Z,5.30
2022-12-06T09:27:01.098Z,5.30
2022-12-06T09:29:40.188Z,5.30
2022-12-06T09:32:10.041Z,5.30
2022-12-06T09:34:39.719Z,5.30
2022-12-06T09:37:14.176Z,5.30
2022-12-06T09:39:48.983Z,5.40
2022-12-06T09:42:46.570Z,5.30
2022-12-06T09:46:01.736Z,5.30
2022-12-06T09:48:44.273Z,5.20
2022-12-06T09:51:17.774Z,5.20
2022-12-06T09:54:22.935Z,5.20
2022-12-06T09:57:32.174Z,5.20
2022-12-06T10:00:22.869Z,5.30
2022-12-06T10:03:29.287Z,5.30
2022-12-06T10:06:00.543Z,5.40
2022-12-06T10:08:43.478Z,5.30
2022-12-06T10:11:32.024Z,5.30
2022-12-06T10:14:24.315Z,5.30
2022-12-06T10:17:11.175Z,5.30
2022-12-06T10:20:15.120Z,5.40
2022-12-06T10:23:04.873Z,5.30
2022-12-06T10:25:47.067Z,5.20
2022-12-06T10:28:39.929Z,5.20
2022-12-06T10:31:38.627Z,5.20
2022-12-06T10:34:22.456Z,5.20
2022-12-06T10:37:22.579Z,5.20
2022-12-06T10:40:16.099Z,5.30
2022-12-06T10:42:47.822Z,5.30
2022-12-06T10:45:30.360Z,5.30
2022-12-06T10:48:02.834Z,5.30
2022-12-06T10:50:36.616Z,5.30
2022-12-06T10:53:11.460Z,5.30
2022-12-06T10:55:54.450Z,5.30
2022-12-06T10:58:33.851Z,5.30
2022-12-06T11:01:09.015Z,5.30
2022-12-06T11:03:59.496Z,5.20
2022-12-06T11:06:35.136Z,5.20
2022-12-06T11:09:20.684Z,5.20
2022-12-06T11:11:50.044Z,5.30
2022-12-06T11:14:32.255Z,5.30
2022-12-06T11:17:14.968Z,5.30
2022-12-06T11:20:04.438Z,5.40
2022-12-06T11:22:40.949Z,5.50
2022-12-06T11:25:11.598Z,5.50
2022-12-06T11:27:46.748Z,5.50
2022-12-06T11:30:20.317Z,5.50
2022-12-06T11:32:51.322Z,5.50
2022-12-06T11:35:28.080Z,5.50
2022-12-06T11:38:01.489Z,5.50
2022-12-06T11:40:37.504Z,5.50
2022-12-06T11:43:13.710Z,5.50
2022-12-06T11:45:42.482Z,5.50
2022-12-06T11:48:31.098Z,5.60
2022-12-06T11:50:58.705Z,5.60
2022-12-06T11:53:53.317Z,5.60
2022-12-06T11:56:25.461Z,5.60
2022-12-06T11:59:02.712Z,5.60
2022-12-06T12:01:45.156Z,5.60
2022-12-06T12:04:44.317Z,5.60
2022-12-06T12:07:22.215Z,5.60
2022-12-06T12:10:02.708Z,5.60
2022-12-06T12:12:49.837Z,5.60
2022-12-06T12:15:19.235Z,5.60
2022-12-06T12:17:51.868Z,5.50
2022-12-06T12:20:29.997Z,5.60
2022-12-06T12:23:04.775Z,5.60
2022-12-06T12:25:34.769Z,5.60
2022-12-06T12:28:21.699Z,5.60
2022-12-06T12:30:53.818Z,5.60
2022-12-06T12:33:23.909Z,5.60
2022-12-06T12:36:14.185Z,5.60
2022-12-06T12:38:50.059Z,5.60
2022-12-06T12:41:38.414Z,5.70
2022-12-06T12:44:36.332Z,5.70
2022-12-06T12:46:57.902Z,5.80
2022-12-06T12:49:37.445Z,5.90
2022-12-06T12:52:27.702Z,5.90
2022-12-06T12:55:13.957Z,5.90
2022-12-06T12:57:43.735Z,5.90
2022-12-06T13:00:19.395Z,5.90
2022-12-06T13:02:51.940Z,5.80
2022-12-06T13:05:33.357Z,5.80
2022-12-06T13:08:21.175Z,5.80
2022-12-06T13:10:58.853Z,5.70
2022-12-06T13:13:39.542Z,5.60
2022-12-06T13:16:18.037Z,5.60
2022-12-06T13:18:48.691Z,5.60
2022-12-06T13:21:37.219Z,5.60
2022-12-06T13:24:10.477Z,5.60
2022-12-06T13:26:47.150Z,5.60
2022-12-06T13:29:23.499Z,5.60
2022-12-06T13:31:55.075Z,5.60
2022-12-06T13:34:37.958Z,5.50
2022-12-06T13:37:26.998Z,5.60
2022-12-06T13:39:54.545Z,5.50
2022-12-06T13:42:36.109Z,5.60
2022-12-06T13:45:24.020Z,5.50
2022-12-06T13:47:51.636Z,5.50
2022-12-06T13:50:18.761Z,5.40
2022-12-06T13:52:46.098Z,5.30
2022-12-06T13:55:25.876Z,5.30
2022-12-06T13:57:56.193Z,5.20
2022-12-06T14:00:29.889Z,5.30
2022-12-06T14:02:59.475Z,5.30
2022-12-06T14:08:40.928Z,5.20
2022-12-06T14:11:11.476Z,5.10
2022-12-06T14:13:41.657Z,5.10
2022-12-06T14:16:21.906Z,5.00
2022-12-06T14:18:50.453Z,5.00
2022-12-06T14:21:26.553Z,5.00
2022-12-06T14:23:54.156Z,5.00
2022-12-06T14:26:31.715Z,5.00
2022-12-06T14:29:01.769Z,5.00
2022-12-06T14:31:30.771Z,4.90
2022-12-06T14:33:58.192Z,4.90
2022-12-06T14:36:40.008Z,4.90
2022-12-06T14:39:18.725Z,4.90
2022-12-06T14:42:03.626Z,5.00
2022-12-06T14:44:32.355Z,5.00
2022-12-06T14:46:59.765Z,5.00
2022-12-06T14:49:30.042Z,5.00
2022-12-06T14:51:57.307Z,5.00
2022-12-06T14:54:27.847Z,4.90
2022-12-06T14:56:57.281Z,4.90
2022-12-06T15:00:12.724Z,4.90
2022-12-06T15:02:30.493Z,4.90
2022-12-06T15:05:01.835Z,4.90
2022-12-06T15:07:30.607Z,4.90
2022-12-06T15:10:18.416Z,4.80
2022-12-06T15:12:45.818Z,4.80
2022-12-06T15:15:36.016Z,4.80
2022-12-06T15:18:10.314Z,4.80
2022-12-06T15:20:37.743Z,4.70
2022-12-06T15:23:29.829Z,4.70
2022-12-06T15:25:57.643Z,4.70
2022-12-06T15:28:27.440Z,4.70
2022-12-06T15:30:55.184Z,4.60
2022-12-06T15:33:24.400Z,4.70
2022-12-06T15:35:52.185Z,4.60
2022-12-06T15:38:19.311Z,4.60
2022-12-06T15:40:51.376Z,4.60
2022-12-06T15:43:25.923Z,4.60
2022-12-06T15:45:53.682Z,4.70
2022-12-06T15:48:21.199Z,4.70
2022-12-06T15:50:53.343Z,4.70
2022-12-06T15:53:25.787Z,4.70
2022-12-06T15:55:56.144Z,4.70
2022-12-06T15:58:23.181Z,4.80
2022-12-06T16:00:50.909Z,4.80
2022-12-06T16:03:20.729Z,4.80
2022-12-06T16:05:48.172Z,4.80
2022-12-06T16:08:15.423Z,4.80
2022-12-06T16:11:13.133Z,4.90
2022-12-06T16:13:32.508Z,4.80
2022-12-06T16:16:00.154Z,4.80
2022-12-06T16:18:29.797Z,4.70
2022-12-06T16:20:57.941Z,4.70
2022-12-06T16:23:43.072Z,4.70
2022-12-06T16:26:16.096Z,4.70
2022-12-06T16:28:46.184Z,4.70
2022-12-06T16:31:15.893Z,4.70
2022-12-06T16:33:45.259Z,4.60
2022-12-06T16:36:24.376Z,4.60
2022-12-06T16:38:53.277Z,4.60
2022-12-06T16:41:34.652Z,4.70
2022-12-06T16:44:02.670Z,4.80
2022-12-06T16:46:34.794Z,4.90
2022-12-06T16:49:22.688Z,4.90
2022-12-06T16:51:53.056Z,4.90
2022-12-06T16:54:22.394Z,4.80
2022-12-06T16:56:49.801Z,4.80
2022-12-06T16:59:18.171Z,4.80
2022-12-06T17:01:55.560Z,4.80
2022-12-06T17:04:23.254Z,4.80
2022-12-06T17:06:50.619Z,4.70
2022-12-06T17:09:17.737Z,4.70
2022-12-06T17:11:45.346Z,4.70
2022-12-06T17:14:13.710Z,4.70
2022-12-06T17:16:45.558Z,4.70
2022-12-06T17:19:15.486Z,4.70
2022-12-06T17:21:45.048Z,4.70
2022-12-06T17:24:13.652Z,4.70
2022-12-06T17:26:41.280Z,4.70
2022-12-06T17:29:09.563Z,4.80
2022-12-06T17:31:38.079Z,4.80
2022-12-06T17:34:08.297Z,4.80
2022-12-06T17:36:38.048Z,4.80
2022-12-06T17:39:13.654Z,4.80
2022-12-06T17:41:41.178Z,4.80
2022-12-06T17:44:09.493Z,4.80
2022-12-06T17:46:37.977Z,4.80
2022-12-06T17:49:06.799Z,4.80
2022-12-06T17:51:34.473Z,4.80
2022-12-06T17:54:07.565Z,4.90
2022-12-06T17:56:38.833Z,4.90
2022-12-06T17:59:13.179Z,4.90
2022-12-06T18:02:06.602Z,4.90
2022-12-06T18:04:28.944Z,4.80
2022-12-06T18:06:58.930Z,4.80
2022-12-06T18:09:30.743Z,4.80
2022-12-06T18:11:58.791Z,4.80
2022-12-06T18:14:31.012Z,4.70
2022-12-06T18:17:01.121Z,4.70
2022-12-06T18:19:30.768Z,4.70
2022-12-06T18:21:58.374Z,4.70
2022-12-06T18:24:33.541Z,4.60
2022-12-06T18:27:04.610Z,4.70
2022-12-06T18:29:34.412Z,4.60
2022-12-06T18:32:02.429Z,4.60
2022-12-06T18:34:29.844Z,4.60
2022-12-06T18:36:57.343Z,4.60
2022-12-06T18:39:24.641Z,4.60
2022-12-06T18:41:55.951Z,4.50
2022-12-06T18:44:23.968Z,4.50
2022-12-06T18:46:51.592Z,4.40
2022-12-06T18:49:21.344Z,4.40
2022-12-06T18:51:48.912Z,4.40
2022-12-06T18:54:16.297Z,4.40
2022-12-06T18:56:43.836Z,4.40
2022-12-06T18:59:14.501Z,4.40
2022-12-06T19:01:41.912Z,4.40
2022-12-06T19:04:12.589Z,4.40
2022-12-06T19:06:40.015Z,4.30
2022-12-06T19:09:13.736Z,4.30
2022-12-06T19:11:45.581Z,4.30
2022-12-06T19:14:12.860Z,4.20
2022-12-06T19:16:48.774Z,4.20
2022-12-06T19:19:19.447Z,4.30
2022-12-06T19:21:51.058Z,4.30
2022-12-06T19:24:20.895Z,4.20
2022-12-06T19:26:53.376Z,4.20
2022-12-06T19:29:21.232Z,4.20
2022-12-06T19:31:48.732Z,4.20
2022-12-06T19:34:20.447Z,4.20
2022-12-06T19:36:54.597Z,4.10
2022-12-06T19:39:22.119Z,4.20
2022-12-06T19:41:51.952Z,4.10
2022-12-06T19:44:19.041Z,4.10
2022-12-06T19:46:49.301Z,4.10
2022-12-06T19:49:19.478Z,4.10
2022-12-06T19:51:47.842Z,4.20
2022-12-06T19:54:24.365Z,4.20
2022-12-06T19:56:55.948Z,4.20
2022-12-06T19:59:25.421Z,4.20
2022-12-06T20:01:56.077Z,4.20
2022-12-06T20:04:26.078Z,4.10
2022-12-06T20:06:56.157Z,4.10
2022-12-06T20:09:25.169Z,4.00
2022-12-06T20:11:53.704Z,4.00
2022-12-06T20:14:24.126Z,4.10
2022-12-06T20:16:51.579Z,4.10
2022-12-06T20:19:19.072Z,4.00
2022-12-06T20:21:47.424Z,4.10
2022-12-06T20:24:17.605Z,4.10
2022-12-06T20:26:45.948Z,4.10
2022-12-06T20:29:13.684Z,4.10
2022-12-06T20:31:41.088Z,4.10
2022-12-06T20:34:15.003Z,4.10
2022-12-06T20:36:44.166Z,4.10
2022-12-06T20:39:27.370Z,4.10
2022-12-06T20:41:57.541Z,4.10
2022-12-06T20:44:24.562Z,4.10
2022-12-06T20:46:54.264Z,4.10
2022-12-06T20:49:21.709Z,4.10
2022-12-06T20:51:53.000Z,4.10
2022-12-06T20:54:21.793Z,4.00
2022-12-06T20:56:49.302Z,4.00
2022-12-06T20:59:16.397Z,3.90
2022-12-06T21:01:43.821Z,4.00
2022-12-06T21:04:13.885Z,3.90
2022-12-06T21:06:41.731Z,3.90
2022-12-06T21:09:09.232Z,3.90
2022-12-06T21:11:36.978Z,3.90
2022-12-06T21:14:04.101Z,3.90
2022-12-06T21:16:32.519Z,3.90
2022-12-06T21:19:07.726Z,3.90
2022-12-06T21:21:37.439Z,3.90
2022-12-06T21:24:07.772Z,4.00
2022-12-06T21:26:35.513Z,4.00
2022-12-06T21:29:03.244Z,4.00
2022-12-06T21:31:35.973Z,4.00
2022-12-06T21:34:05.862Z,4.00
2022-12-06T21:36:36.652Z,4.00
2022-12-06T21:39:06.493Z,4.00
2022-12-06T21:41:33.996Z,4.00
2022-12-06T21:44:01.148Z,3.90
2022-12-06T21:46:30.993Z,3.90
2022-12-06T21:49:01.018Z,3.90
2022-12-06T21:51:31.255Z,4.00
2022-12-06T21:53:58.907Z,4.00
2022-12-06T21:56:29.060Z,4.00
2022-12-06T21:58:56.533Z,4.00
2022-12-06T22:01:25.957Z,4.00
2022-12-06T22:03:57.743Z,4.00
2022-12-06T22:06:25.565Z,4.00
2022-12-06T22:08:58.776Z,3.90
2022-12-06T22:11:27.007Z,4.00
2022-12-06T22:13:54.279Z,3.90
2022-12-06T22:16:21.791Z,3.90
2022-12-06T22:18:49.255Z,4.00
2022-12-06T22:21:21.632Z,4.00
2022-12-06T22:23:51.664Z,4.00
2022-12-06T22:26:22.625Z,4.00
2022-12-06T22:28:52.469Z,4.00
2022-12-06T22:31:26.124Z,4.00
2022-12-06T22:33:54.415Z,4.00
2022-12-06T22:36:22.137Z,4.00
2022-12-06T22:38:50.387Z,4.00
2022-12-06T22:41:21.496Z,3.90
2022-12-06T22:43:56.458Z,3.90
2022-12-06T22:46:25.302Z,3.80
2022-12-06T22:48:52.902Z,3.90
2022-12-06T22:51:28.900Z,3.80
2022-12-06T22:54:00.940Z,3.90
2022-12-06T22:56:30.155Z,3.90
2022-12-06T22:59:01.549Z,3.90
2022-12-06T23:01:31.340Z,3.90
2022-12-06T23:04:00.963Z,3.90
2022-12-06T23:06:30.828Z,3.80
2022-12-06T23:08:58.389Z,3.80
2022-12-06T23:11:29.194Z,3.80
2022-12-06T23:13:57.492Z,3.80
2022-12-06T23:16:27.566Z,3.80
2022-12-06T23:18:55.751Z,3.80
2022-12-06T23:21:25.896Z,3.80
2022-12-06T23:23:57.558Z,3.80
2022-12-06T23:26:30.555Z,3.80
2022-12-06T23:28:58.092Z,3.70
2022-12-06T23:31:28.536Z,3.70
2022-12-06T23:34:01.889Z,3.70
2022-12-06T23:36:32.873Z,3.70
2022-12-06T23:39:00.154Z,3.70
2022-12-06T23:41:29.331Z,3.70
2022-12-06T23:43:58.147Z,3.70
2022-12-06T23:46:34.597Z,3.70
2022-12-06T23:49:02.387Z,3.70
2022-12-06T23:51:33.734Z,3.70
2022-12-06T23:54:02.070Z,3.60
2022-12-06T23:56:33.385Z,3.60
2022-12-06T23:59:01.999Z,3.60
